createdAt,value
2019-04-23T00:03:54.791Z,7.20
2019-04-23T00:06:47.706Z,4.80
2019-04-23T00:09:07.330Z,4.40
2019-04-23T00:11:32.716Z,2.40
2019-04-23T00:14:12.198Z,9.20
2019-04-23T00:16:42.905Z,11.40
2019-04-23T00:19:11.634Z,8.20
2019-04-23T00:21:45.884Z,11.40
2019-04-23T00:24:36.282Z,11.80
2019-04-23T00:26:53.771Z,18.00
2019-04-23T00:29:34.599Z,15.20
2019-04-23T00:32:04.826Z,18.40
2019-04-23T00:34:37.846Z,20.20
2019-04-23T00:37:13.124Z,9.20
2019-04-23T00:39:41.265Z,9.20
2019-04-23T00:42:17.240Z,8.60
2019-04-23T00:44:52.832Z,10.20
2019-04-23T00:47:22.352Z,7.60
2019-04-23T00:50:01.986Z,12.20
2019-04-23T00:52:26.466Z,11.80
2019-04-23T00:55:07.647Z,8.20
2019-04-23T01:00:14.030Z,10.20
2019-04-23T01:02:37.526Z,13.80
2019-04-23T01:07:44.506Z,11.40
2019-04-23T01:10:25.563Z,15.40
2019-04-23T01:12:52.901Z,8.60
2019-04-23T01:18:02.267Z,10.80
2019-04-23T01:20:36.836Z,12.20
2019-04-23T01:22:44.261Z,17.00
2019-04-23T01:25:24.676Z,13.20
2019-04-23T01:28:19.634Z,10.00
2019-04-23T01:30:46.874Z,14.20
2019-04-23T01:33:29.646Z,11.60
2019-04-23T01:38:35.086Z,9.20
2019-04-23T01:41:00.300Z,12.60
2019-04-23T01:43:38.239Z,9.80
2019-04-23T01:46:07.937Z,11.40
2019-04-23T01:48:43.306Z,11.40
2019-04-23T01:51:09.528Z,13.60
2019-04-23T02:01:45.591Z,15.40
2019-04-23T02:04:03.568Z,16.40
2019-04-23T02:06:36.768Z,11.60
2019-04-23T02:09:05.270Z,16.60
2019-04-23T02:11:37.778Z,14.00
2019-04-23T02:14:14.871Z,16.20
2019-04-23T02:16:44.112Z,15.00
2019-04-23T02:19:25.430Z,17.60
2019-04-23T02:22:01.403Z,10.60
2019-04-23T02:24:27.465Z,16.40
2019-04-23T02:26:55.897Z,12.20
2019-04-23T02:29:47.648Z,15.80
2019-04-23T02:37:24.378Z,17.40
2019-04-23T02:40:01.010Z,17.00
2019-04-23T02:44:56.386Z,18.40
2019-04-23T02:47:32.534Z,19.20
2019-04-23T02:52:43.100Z,23.20
2019-04-23T02:57:44.059Z,21.40
2019-04-23T03:08:10.208Z,19.80
2019-04-23T03:10:34.294Z,17.00
2019-04-23T03:13:16.196Z,17.60
2019-04-23T03:16:00.887Z,21.00
2019-04-23T03:20:59.517Z,21.20
2019-04-23T03:26:04.309Z,18.40
2019-04-23T03:28:47.152Z,18.80
2019-04-23T03:36:17.068Z,24.20
2019-04-23T03:38:45.323Z,25.80
2019-04-23T03:41:15.737Z,22.20
2019-04-23T03:43:44.821Z,20.80
2019-04-23T03:46:34.134Z,26.40
2019-04-23T03:48:57.413Z,24.80
2019-04-23T03:51:31.669Z,20.80
2019-04-23T03:54:11.744Z,19.00
2019-04-23T03:59:18.603Z,27.80
2019-04-23T04:01:38.937Z,19.20
2019-04-23T04:06:49.194Z,18.80
2019-04-23T04:09:28.705Z,23.80
2019-04-23T04:11:45.626Z,24.00
2019-04-23T04:14:32.212Z,25.60
2019-04-23T04:17:01.341Z,25.80
2019-04-23T04:27:29.147Z,23.60
2019-04-23T04:29:47.098Z,27.80
2019-04-23T04:32:11.942Z,26.60
2019-04-23T04:42:25.392Z,29.00
2019-04-23T04:47:42.282Z,32.60
2019-04-23T04:50:22.774Z,28.80
2019-04-23T04:55:23.585Z,29.80
2019-04-23T05:03:19.242Z,35.80
2019-04-23T05:05:58.302Z,30.60
2019-04-23T05:13:21.769Z,32.00
2019-04-23T05:18:23.535Z,39.40
2019-04-23T05:20:52.949Z,34.60
2019-04-23T05:23:36.989Z,35.00
2019-04-23T05:25:51.492Z,34.40
2019-04-23T05:28:52.015Z,44.20
2019-04-23T05:31:00.094Z,39.20
2019-04-23T05:33:33.821Z,33.40
2019-04-23T05:38:52.692Z,32.20
2019-04-23T05:41:18.060Z,38.00
2019-04-23T05:43:44.905Z,38.00
2019-04-23T05:48:55.353Z,37.40
2019-04-23T05:51:27.963Z,35.20
2019-04-23T05:54:03.585Z,33.00
2019-04-23T05:56:32.333Z,37.40
2019-04-23T05:59:06.663Z,37.40
2019-04-23T06:09:19.199Z,38.20
2019-04-23T06:11:56.985Z,29.80
2019-04-23T06:14:25.026Z,37.00
2019-04-23T06:17:09.702Z,35.40
2019-04-23T06:19:28.778Z,35.00
2019-04-23T06:24:44.353Z,33.60
2019-04-23T06:27:15.153Z,33.60
2019-04-23T06:29:43.211Z,39.00
2019-04-23T06:32:29.442Z,35.20
2019-04-23T06:34:53.130Z,41.60
2019-04-23T06:37:39.790Z,45.40
2019-04-23T06:39:59.761Z,45.00
2019-04-23T06:42:30.757Z,50.20
2019-04-23T06:45:01.261Z,49.60
2019-04-23T06:47:35.355Z,31.60
2019-04-23T06:50:06.627Z,44.20
2019-04-23T06:52:39.789Z,36.00
2019-04-23T06:55:20.469Z,27.80
2019-04-23T06:58:00.009Z,32.00
2019-04-23T07:00:27.437Z,27.40
2019-04-23T07:02:59.782Z,29.80
2019-04-23T07:05:37.690Z,34.00
2019-04-23T07:08:02.865Z,38.00
2019-04-23T07:10:40.301Z,32.00
2019-04-23T07:13:13.976Z,24.40
2019-04-23T07:15:58.726Z,33.20
2019-04-23T07:18:16.204Z,30.60
2019-04-23T07:20:50.518Z,34.00
2019-04-23T07:23:30.038Z,26.80
2019-04-23T07:26:07.792Z,29.80
2019-04-23T07:28:39.012Z,31.00
2019-04-23T07:31:14.274Z,34.20
2019-04-23T07:33:47.487Z,30.40
2019-04-23T07:36:17.225Z,29.80
2019-04-23T07:38:54.693Z,31.80
2019-04-23T07:41:23.767Z,31.00
2019-04-23T07:44:00.894Z,34.60
2019-04-23T07:46:33.878Z,32.20
2019-04-23T07:49:01.224Z,27.80
2019-04-23T07:51:37.383Z,31.80
2019-04-23T07:54:11.354Z,26.60
2019-04-23T07:56:42.190Z,25.80
2019-04-23T07:59:19.182Z,27.60
2019-04-23T08:01:49.107Z,24.20
2019-04-23T08:04:16.897Z,27.00
2019-04-23T08:06:53.053Z,27.60
2019-04-23T08:09:24.098Z,25.80
2019-04-23T08:11:56.344Z,25.60
2019-04-23T08:14:34.279Z,27.60
2019-04-23T08:17:05.616Z,27.00
2019-04-23T08:22:21.758Z,27.00
2019-04-23T08:24:50.568Z,26.80
2019-04-23T08:27:18.607Z,25.20
2019-04-23T08:29:55.395Z,22.60
2019-04-23T08:32:29.553Z,25.40
2019-04-23T08:34:58.676Z,28.00
2019-04-23T08:37:47.917Z,24.60
2019-04-23T08:40:02.608Z,21.00
2019-04-23T08:45:15.608Z,23.20
2019-04-23T08:47:44.290Z,23.40
2019-04-23T08:50:21.667Z,25.80
2019-04-23T08:52:52.446Z,17.60
2019-04-23T08:57:47.426Z,27.00
2019-04-23T09:00:39.374Z,14.60
2019-04-23T09:03:04.656Z,23.00
2019-04-23T09:05:46.742Z,25.80
2019-04-23T09:08:22.897Z,25.80
2019-04-23T09:10:49.445Z,29.80
2019-04-23T09:18:31.167Z,21.00
2019-04-23T09:20:55.141Z,26.40
2019-04-23T09:26:03.898Z,26.60
2019-04-23T09:36:26.029Z,24.00
2019-04-23T09:38:54.117Z,25.60
2019-04-23T09:44:10.649Z,21.20
2019-04-23T09:46:29.574Z,29.00
2019-04-23T09:49:18.653Z,19.40
2019-04-23T09:51:47.204Z,26.20
2019-04-23T09:59:25.338Z,27.40
2019-04-23T10:01:44.968Z,21.00
2019-04-23T10:04:12.538Z,26.20
2019-04-23T10:06:36.234Z,25.80
2019-04-23T10:09:10.116Z,25.00
2019-04-23T10:11:40.988Z,23.20
2019-04-23T10:14:12.490Z,27.80
2019-04-23T10:16:45.064Z,22.60
2019-04-23T10:19:17.171Z,19.00
2019-04-23T10:21:49.246Z,27.40
2019-04-23T10:24:21.087Z,21.40
2019-04-23T10:26:52.585Z,23.00
2019-04-23T10:29:23.938Z,22.40
2019-04-23T10:31:55.733Z,29.00
2019-04-23T10:34:27.453Z,23.60
2019-04-23T10:36:59.626Z,26.40
2019-04-23T10:39:35.592Z,26.80
2019-04-23T10:42:05.775Z,29.00
2019-04-23T10:44:38.093Z,24.00
2019-04-23T10:47:43.565Z,26.20
2019-04-23T10:50:34.377Z,21.20
2019-04-23T10:52:57.032Z,20.80
2019-04-23T10:55:22.342Z,23.20
2019-04-23T10:57:45.981Z,20.20
2019-04-23T11:00:26.799Z,24.80
2019-04-23T11:02:59.130Z,19.60
2019-04-23T11:05:42.995Z,22.40
2019-04-23T11:08:02.355Z,24.20
2019-04-23T11:10:32.929Z,22.20
2019-04-23T11:13:21.359Z,20.80
2019-04-23T11:15:58.393Z,23.80
2019-04-23T11:18:08.890Z,22.00
2019-04-23T11:21:00.927Z,22.40
2019-04-23T11:23:27.908Z,20.20
2019-04-23T11:25:57.743Z,23.80
2019-04-23T11:28:33.106Z,20.40
2019-04-23T11:41:26.385Z,23.60
2019-04-23T11:44:14.284Z,29.60
2019-04-23T11:46:39.750Z,25.80
2019-04-23T11:51:54.715Z,20.60
2019-04-23T11:57:07.878Z,20.00
2019-04-23T11:59:16.289Z,22.00
2019-04-23T12:01:52.896Z,25.60
2019-04-23T12:04:26.305Z,25.20
2019-04-23T12:06:52.758Z,24.40
2019-04-23T12:09:34.822Z,23.60
2019-04-23T12:14:37.437Z,27.40
2019-04-23T12:17:17.244Z,23.40
2019-04-23T12:22:18.043Z,30.20
2019-04-23T12:25:02.511Z,20.80
2019-04-23T12:32:43.277Z,24.40
2019-04-23T12:35:09.039Z,25.00
2019-04-23T12:37:36.362Z,28.00
2019-04-23T12:40:11.273Z,25.40
2019-04-23T12:47:49.966Z,28.20
2019-04-23T12:55:27.765Z,22.20
2019-04-23T12:57:57.396Z,26.80
2019-04-23T13:00:37.078Z,24.00
2019-04-23T13:02:57.194Z,24.40
2019-04-23T13:05:35.927Z,28.20
2019-04-23T13:08:15.499Z,20.40
2019-04-23T13:10:44.068Z,21.40
2019-04-23T13:15:48.824Z,20.60
2019-04-23T13:18:27.323Z,23.80
2019-04-23T13:20:53.926Z,26.00
2019-04-23T13:23:30.763Z,25.60
2019-04-23T13:26:01.283Z,29.60
2019-04-23T13:28:35.335Z,18.80
2019-04-23T13:31:13.007Z,28.40
2019-04-23T13:33:50.985Z,23.40
2019-04-23T13:36:17.510Z,27.20
2019-04-23T13:38:52.635Z,30.60
2019-04-23T13:44:06.073Z,26.00
2019-04-23T13:46:22.836Z,26.20
2019-04-23T13:48:58.260Z,29.20
2019-04-23T13:51:37.056Z,28.20
2019-04-23T13:54:13.854Z,24.00
2019-04-23T13:56:53.864Z,28.40
2019-04-23T13:59:16.335Z,27.60
2019-04-23T14:01:43.005Z,30.00
2019-04-23T14:06:55.631Z,27.60
2019-04-23T14:09:36.742Z,27.20
2019-04-23T14:11:58.635Z,27.40
2019-04-23T14:14:42.145Z,28.40
2019-04-23T14:17:16.641Z,27.20
2019-04-23T14:19:34.305Z,24.00
2019-04-23T14:22:33.781Z,25.20
2019-04-23T14:24:53.220Z,28.60
2019-04-23T14:27:24.533Z,29.80
2019-04-23T14:29:58.522Z,24.60
2019-04-23T14:32:29.354Z,27.20
2019-04-23T14:35:18.084Z,43.00
2019-04-23T14:37:29.488Z,24.60
2019-04-23T14:40:07.449Z,29.00
2019-04-23T14:43:01.787Z,23.80
2019-04-23T14:45:21.184Z,30.60
2019-04-23T14:47:54.691Z,29.80
2019-04-23T14:52:57.204Z,28.00
2019-04-23T15:00:33.259Z,27.00
2019-04-23T15:03:17.983Z,31.60
2019-04-23T15:05:45.089Z,25.60
2019-04-23T15:08:20.627Z,29.40
2019-04-23T15:10:57.308Z,30.80
2019-04-23T15:13:22.769Z,32.40
2019-04-23T15:16:06.279Z,25.00
2019-04-23T15:18:37.766Z,26.40
2019-04-23T15:21:18.411Z,28.40
2019-04-23T15:23:41.242Z,25.00
2019-04-23T15:26:47.865Z,30.80
2019-04-23T15:28:13.267Z,31.80
2019-04-23T15:33:56.458Z,27.40
2019-04-23T15:44:07.383Z,33.40
2019-04-23T15:54:15.071Z,29.20
2019-04-23T15:59:21.007Z,30.20
2019-04-23T16:01:42.523Z,26.20
2019-04-23T16:03:53.734Z,31.60
2019-04-23T16:06:30.218Z,29.00
2019-04-23T16:09:16.251Z,30.20
2019-04-23T16:11:51.899Z,28.00
2019-04-23T16:14:31.177Z,27.20
2019-04-23T16:17:10.063Z,30.00
2019-04-23T16:19:45.902Z,25.00
2019-04-23T16:22:10.757Z,24.60
2019-04-23T16:24:51.901Z,27.00
2019-04-23T16:30:06.327Z,30.80
2019-04-23T16:35:06.218Z,27.80
2019-04-23T16:37:57.420Z,27.40
2019-04-23T16:40:16.431Z,28.00
2019-04-23T16:42:40.069Z,27.20
2019-04-23T16:45:16.449Z,30.00
2019-04-23T16:47:52.306Z,27.40
2019-04-23T16:50:18.165Z,25.40
2019-04-23T16:52:51.828Z,28.40
2019-04-23T16:55:24.084Z,31.00
2019-04-23T16:58:08.359Z,28.80
2019-04-23T17:00:31.810Z,29.00
2019-04-23T17:03:13.845Z,30.40
2019-04-23T17:05:44.320Z,29.80
2019-04-23T17:10:46.754Z,23.00
2019-04-23T17:13:25.592Z,30.40
2019-04-23T17:18:26.239Z,15.40
2019-04-23T17:20:59.994Z,30.20
2019-04-23T17:23:39.261Z,26.20
2019-04-23T17:26:13.157Z,32.60
2019-04-23T17:28:39.507Z,24.40
2019-04-23T17:31:28.006Z,29.60
2019-04-23T17:36:24.371Z,27.60
2019-04-23T17:38:56.983Z,31.20
2019-04-23T17:44:09.982Z,30.40
2019-04-23T17:46:29.562Z,26.20
2019-04-23T17:49:08.423Z,25.60
2019-04-23T17:51:42.212Z,25.80
2019-04-23T17:54:12.100Z,32.20
2019-04-23T18:02:12.144Z,26.40
2019-04-23T18:07:00.454Z,30.20
2019-04-23T18:09:34.324Z,29.20
2019-04-23T18:12:01.071Z,28.40
2019-04-23T18:14:28.274Z,29.20
2019-04-23T18:17:13.058Z,32.00
2019-04-23T18:19:32.744Z,28.80
2019-04-23T18:22:18.286Z,30.80
2019-04-23T18:24:41.439Z,34.60
2019-04-23T18:27:19.165Z,30.80
2019-04-23T18:32:23.359Z,29.20
2019-04-23T18:35:15.479Z,34.20
2019-04-23T18:37:30.014Z,33.60
2019-04-23T18:40:00.364Z,38.60
2019-04-23T18:42:41.706Z,37.60
2019-04-23T18:45:20.531Z,34.20
2019-04-23T18:47:47.192Z,33.20
2019-04-23T18:50:23.015Z,34.00
2019-04-23T18:55:37.976Z,36.80
2019-04-23T18:57:57.310Z,33.20
2019-04-23T19:03:01.169Z,34.80
2019-04-23T19:05:45.632Z,41.60
2019-04-23T19:08:23.443Z,36.40
2019-04-23T19:10:48.687Z,35.40
2019-04-23T19:13:21.872Z,42.80
2019-04-23T19:15:42.152Z,38.40
2019-04-23T19:18:26.667Z,37.80
2019-04-23T19:21:00.907Z,44.60
2019-04-23T19:26:07.878Z,43.20
2019-04-23T19:31:09.682Z,42.20
2019-04-23T19:33:49.210Z,44.60
2019-04-23T19:38:49.699Z,39.00
2019-04-23T19:41:23.819Z,43.00
2019-04-23T19:43:58.095Z,43.20
2019-04-23T19:49:05.655Z,42.20
2019-04-23T19:51:33.786Z,43.00
2019-04-23T19:56:47.174Z,40.40
2019-04-23T19:59:13.413Z,46.80
2019-04-23T20:01:53.365Z,42.80
2019-04-23T20:04:15.059Z,43.00
2019-04-23T20:14:41.597Z,46.20
2019-04-23T20:17:23.358Z,50.40
2019-04-23T20:19:44.060Z,41.20
2019-04-23T20:22:17.108Z,38.80
2019-04-23T20:27:18.517Z,48.00
2019-04-23T20:30:15.650Z,42.40
2019-04-23T20:34:59.141Z,45.80
2019-04-23T20:38:05.133Z,44.80
2019-04-23T20:40:08.652Z,48.80
2019-04-23T20:42:37.138Z,45.80
2019-04-23T20:47:48.460Z,46.60
2019-04-23T20:50:10.151Z,48.00
2019-04-23T20:52:46.650Z,46.60
2019-04-23T20:55:31.108Z,50.40
2019-04-23T20:57:50.254Z,46.20
2019-04-23T21:00:27.480Z,50.40
2019-04-23T21:05:29.923Z,45.00
2019-04-23T21:08:07.929Z,47.40
2019-04-23T21:15:52.546Z,46.20
2019-04-23T21:18:33.041Z,47.40
2019-04-23T21:23:36.065Z,48.00
2019-04-23T21:25:57.210Z,41.00
2019-04-23T21:31:18.954Z,46.20
2019-04-23T21:33:51.533Z,51.20
2019-04-23T21:41:35.237Z,49.40
2019-04-23T21:44:54.267Z,44.40
2019-04-23T21:46:38.233Z,49.20
2019-04-23T21:53:58.491Z,49.80
2019-04-23T21:59:07.277Z,48.20
2019-04-23T22:01:55.876Z,48.00
2019-04-23T22:04:25.359Z,44.20
2019-04-23T22:12:03.594Z,51.20
2019-04-23T22:17:09.625Z,46.80
2019-04-23T22:19:45.060Z,47.20
2019-04-23T22:22:10.753Z,47.80
2019-04-23T22:24:48.299Z,50.60
2019-04-23T22:27:20.184Z,44.80
2019-04-23T22:29:49.242Z,50.80
2019-04-23T22:32:34.309Z,51.00
2019-04-23T22:35:00.356Z,49.00
2019-04-23T22:37:36.501Z,49.40
2019-04-23T22:40:04.714Z,51.80
2019-04-23T22:45:16.249Z,52.00
2019-04-23T22:50:19.841Z,49.80
2019-04-23T22:52:54.048Z,51.00
2019-04-23T22:55:23.493Z,53.20
2019-04-23T23:00:29.991Z,51.60
2019-04-23T23:05:53.805Z,50.00
2019-04-23T23:13:24.712Z,49.80
2019-04-23T23:15:54.614Z,50.40
2019-04-23T23:18:23.209Z,53.80
2019-04-23T23:20:59.566Z,52.40
2019-04-23T23:23:30.575Z,55.20
2019-04-23T23:28:41.208Z,53.20
2019-04-23T23:33:50.808Z,52.20
2019-04-23T23:38:59.481Z,53.60
2019-04-23T23:41:40.478Z,58.00
2019-04-23T23:44:23.953Z,56.20
2019-04-23T23:46:37.377Z,52.60
2019-04-23T23:49:08.278Z,56.20
2019-04-23T23:51:39.889Z,52.40
2019-04-23T23:56:52.305Z,53.60
